Coles Point, Australia
Current Conditions -  °F | °C
As of 8:00 AM on Tuesday 25 Nov 2014 (Local Time) from YWHA Reporting Station
Scattered Clouds Scattered Clouds  
Wind Chill: 64°   Ceiling: Unl
Heat Index: 64°   Visibility: 6mi
Dew Point: 45°   Wind: 10mph
Humidity: 49%   Direction: 120°ESE
Pressure: 30.18"   Gusts: NA
Location:  34.38°S, 135.37°E
Report Text: YWHA 242200Z AUTO 12009KT 9999 // SCT047 18/07 Q1022
Loading
Personal Weather Stations






























Interactive Weather Map New forecast layout! Learn more

10-Day Weather Forecast

Advertisements
Track Severe Weather on mobile